Aérodrome :
LOGIN :

S'inscrire | Disclaimer

   EN    FR    IT 

 










Légende :    VFR   VFR Marginal   IFR   IFR Intensif   IFR Très Intensif
Visi : 
Plafond : 
>= 8 km
>= 3000ft
5 à 8 km
1000 à 3000 ft
1500m à 5 km
500 à 1000 ft
800 à 1500m
200 à 500 ft
< 800m
< 200 ft
Symboles :   Orages  Brouillard  Fortes neiges  Fortes précipitations  Vent > 20 kt
SIGMETs :   Divers  Orages  Givrage  Turbulence  Onde Orograph.  Cendres Volcan.







- Altitude de l'aérodrome : 200 ft


EBBL - Klein Brogel AB

DERNIER METAR :
  • 171755Z AUTO VRB02KT 9999 NCD 13/12 Q1019 BLU

METARs EXPIRÉS :
  • 171725Z AUTO VRB01KT 9999 FEW037/// 13/12 Q1019 BLU
  • 171655Z AUTO VRB01KT 9999 NCD 14/12 Q1019 BLU
  • 171625Z AUTO VRB01KT 9999 NCD 15/13 Q1019 BLU
  • 171555Z AUTO VRB02KT 9999 NCD 16/13 Q1019 BLU
  • 171525Z AUTO VRB01KT 9999 NCD 17/14 Q1019 BLU
  • 171523Z VRB01KT 9999 SCT250 17/14 Q1019 BLU FCST CANCEL

TAF TAF EBBL
Valide du 17 à 13h jusqu'au 17 à 22h UTC


171141Z 1713/1722 VRB02KT 9999 FEW025 SCT260
Pas de NOTAMs connus pour ce terrain.



MET'MAP, la Météo Aéronautique d'un coup d'oeil ! - Copyright ORBIFLY Décembre 2007 - Disclaimer

ORBIFLY MET'MAP TEAM :

Programmation & Développement : Alexandra Zaïnal
Conception & Développement : Baudouin d'Aumeries
Co-Programmation & Développement : Marc-Olivier Méhu
Soutien technique & logistique : Manuel Goepfert

Contact : metmap@orbifly.com




SOURCES & CREDITS :

   NOAA